Time;durP1;ratioP1;P1;durP2;ratioP2;P2;SDS_P1;SDS_P2;PMS_P1;PMS_P2;Temp;Humidity;BMP_temperature;BMP_pressure;BME280_temperature;BME280_humidity;BME280_pressure;Samples;Min_cycle;Max_cycle;Signal;HPM_P1;HPM_P2
2023/07/09 00:00:40;;;;;;;;;;;;;;;23.26;50.66;99862.03;3185168;27;20385;-69
2023/07/09 00:02:13;;;;;;;;;;;;;;;23.26;50.55;99861.22;3185003;27;19978;-70
2023/07/09 00:03:44;;;;;;;;;;;;;;;23.23;50.71;99864.16;3185143;27;19919;-69
2023/07/09 00:05:17;;;;;;;;;;;;;;;23.20;50.72;99853.84;3184890;27;19951;-69
2023/07/09 00:06:48;;;;;;;;;;;;;;;23.17;50.57;99863.78;3184597;27;19972;-69
2023/07/09 00:08:25;;;;;;;;;;;;;;;23.16;50.55;99863.94;3184902;27;19940;-69
2023/07/09 00:09:57;;;;;;;;;;;;;;;23.13;50.63;99862.41;3185231;27;19919;-70
2023/07/09 00:11:28;;;;;;;;;;;;;;;23.11;50.64;99858.22;3185020;27;20346;-69
2023/07/09 00:12:59;;;;;;;;;;;;;;;23.11;50.49;99866.19;3184871;27;20022;-70
2023/07/09 00:14:30;;;;;;;;;;;;;;;23.11;50.24;99866.19;3184913;27;19923;-69
2023/07/09 00:16:02;;;;;;;;;;;;;;;23.07;50.41;99864.78;3183717;27;19921;-67
2023/07/09 00:17:34;;;;;;;;;;;;;;;23.03;50.31;99869.56;3182171;27;19923;-67
2023/07/09 00:19:06;;;;;;;;;;;;;;;23.02;50.24;99862.59;3184713;27;20419;-68
2023/07/09 00:20:36;;;;;;;;;;;;;;;23.02;50.32;99872.41;3185026;27;19968;-68
2023/07/09 00:22:17;;;;;;;;;;;;;;;23.01;50.33;99870.69;3184673;27;20002;-68
2023/07/09 00:23:48;;;;;;;;;;;;;;;22.99;50.04;99870.03;3184550;27;20005;-68
2023/07/09 00:25:21;;;;;;;;;;;;;;;22.98;50.02;99868.34;3184434;27;19964;-68
2023/07/09 00:26:51;;;;;;;;;;;;;;;22.97;50.01;99866.69;3184985;27;20305;-68
2023/07/09 00:28:24;;;;;;;;;;;;;;;22.93;50.24;99863.47;3184439;27;20647;-69
2023/07/09 00:29:54;;;;;;;;;;;;;;;22.94;50.15;99860.66;3184427;27;20321;-68
2023/07/09 00:31:26;;;;;;;;;;;;;;;22.92;50.06;99865.28;3184698;27;19975;-68
2023/07/09 00:32:58;;;;;;;;;;;;;;;22.90;49.75;99863.75;3184864;27;19919;-68
2023/07/09 00:34:29;;;;;;;;;;;;;;;22.88;50.10;99860.41;3184539;27;20446;-69
2023/07/09 00:36:00;;;;;;;;;;;;;;;22.86;50.05;99865.00;3184799;27;19923;-69
2023/07/09 00:37:32;;;;;;;;;;;;;;;22.84;49.87;99869.66;3176262;27;19920;-68
2023/07/09 00:39:04;;;;;;;;;;;;;;;22.84;49.76;99864.34;3172245;28;19920;-68
2023/07/09 00:40:36;;;;;;;;;;;;;;;22.83;49.96;99862.66;3183805;27;20420;-68
2023/07/09 00:42:11;;;;;;;;;;;;;;;22.81;49.87;99857.50;3184601;27;20032;-68
2023/07/09 00:43:43;;;;;;;;;;;;;;;22.80;49.83;99869.09;3182581;27;19959;-69
2023/07/09 00:45:22;;;;;;;;;;;;;;;22.80;49.89;99868.25;3181275;27;19919;-68
2023/07/09 00:47:13;;;;;;;;;;;;;;;22.80;49.93;99863.78;3184139;27;20328;-68
2023/07/09 00:48:46;;;;;;;;;;;;;;;22.80;49.68;99855.81;3184317;27;20319;-68
2023/07/09 00:50:24;;;;;;;;;;;;;;;22.81;49.83;99860.16;3184305;27;19919;-68
2023/07/09 00:51:57;;;;;;;;;;;;;;;22.80;49.48;99862.94;3184536;27;19919;-68
2023/07/09 00:53:30;;;;;;;;;;;;;;;22.80;49.42;99854.97;3184147;27;19919;-68
2023/07/09 00:55:05;;;;;;;;;;;;;;;22.80;49.62;99862.94;3184294;27;19919;-68
2023/07/09 00:56:38;;;;;;;;;;;;;;;22.78;49.53;99868.41;3183883;27;19923;-68
2023/07/09 00:58:11;;;;;;;;;;;;;;;22.76;49.58;99867.72;3184011;27;20371;-68
2023/07/09 00:59:43;;;;;;;;;;;;;;;22.77;49.36;99873.84;3184004;27;20361;-68
2023/07/09 01:01:17;;;;;;;;;;;;;;;22.76;49.48;99864.22;3184258;27;19919;-68
2023/07/09 01:02:48;;;;;;;;;;;;;;;22.78;49.25;99864.94;3183821;27;19919;-68
2023/07/09 01:04:23;;;;;;;;;;;;;;;22.76;49.18;99867.72;3184526;27;19919;-68
2023/07/09 01:05:55;;;;;;;;;;;;;;;22.74;49.24;99864.34;3184011;27;19924;-68
2023/07/09 01:07:27;;;;;;;;;;;;;;;22.74;49.04;99860.88;3183927;27;20396;-69
2023/07/09 01:09:00;;;;;;;;;;;;;;;22.72;49.29;99858.38;3184188;27;20490;-69
2023/07/09 01:10:31;;;;;;;;;;;;;;;22.72;49.16;99871.66;3184382;27;19919;-69
2023/07/09 01:12:05;;;;;;;;;;;;;;;22.71;49.25;99864.66;3184121;27;19927;-69
2023/07/09 01:13:35;;;;;;;;;;;;;;;22.69;49.10;99862.16;3184230;27;19979;-69
2023/07/09 01:15:08;;;;;;;;;;;;;;;22.67;49.45;99866.78;3181723;27;19919;-69
2023/07/09 01:16:43;;;;;;;;;;;;;;;22.67;49.36;99865.94;3173268;27;20611;-69
2023/07/09 01:18:14;;;;;;;;;;;;;;;22.66;49.39;99864.28;3184129;27;20316;-69
2023/07/09 01:19:48;;;;;;;;;;;;;;;22.65;49.03;99867.88;3183820;27;20341;-69
2023/07/09 01:21:21;;;;;;;;;;;;;;;22.63;49.35;99862.75;3184066;27;19919;-69
2023/07/09 01:22:54;;;;;;;;;;;;;;;22.60;49.44;99863.03;3184436;27;19930;-69
2023/07/09 01:24:44;;;;;;;;;;;;;;;22.59;49.50;99866.66;3184049;27;20410;-69
2023/07/09 01:26:16;;;;;;;;;;;;;;;22.58;49.20;99872.13;3161575;27;19923;-69
2023/07/09 01:27:48;;;;;;;;;;;;;;;22.58;49.40;99867.66;3183985;27;20018;-68
2023/07/09 01:29:19;;;;;;;;;;;;;;;22.59;49.26;99871.97;3158782;28;19927;-68
2023/07/09 01:30:53;;;;;;;;;;;;;;;22.58;49.39;99872.13;3182264;27;19923;-69
2023/07/09 01:32:24;;;;;;;;;;;;;;;22.57;49.31;99867.78;3183880;27;19923;-69
2023/07/09 01:33:56;;;;;;;;;;;;;;;22.55;49.14;99870.59;3183757;27;19924;-69
2023/07/09 01:35:28;;;;;;;;;;;;;;;22.55;49.32;99875.06;3183963;27;20007;-69
2023/07/09 01:37:01;;;;;;;;;;;;;;;22.53;49.45;99871.72;3180154;27;19942;-69
2023/07/09 01:38:33;;;;;;;;;;;;;;;22.49;49.30;99866.69;3179426;27;20445;-69
2023/07/09 01:40:05;;;;;;;;;;;;;;;22.49;49.47;99865.84;3181505;27;19979;-69
2023/07/09 01:41:37;;;;;;;;;;;;;;;22.49;49.47;99863.19;3182127;27;19926;-69
2023/07/09 01:43:07;;;;;;;;;;;;;;;22.48;49.08;99867.69;3183420;27;20014;-69
2023/07/09 01:44:40;;;;;;;;;;;;;;;22.48;49.33;99864.19;3179134;27;19919;-69
2023/07/09 01:46:12;;;;;;;;;;;;;;;22.48;49.52;99867.69;3183719;27;20386;-69
2023/07/09 01:47:45;;;;;;;;;;;;;;;22.47;49.33;99868.63;3183394;27;20400;-69
2023/07/09 01:49:16;;;;;;;;;;;;;;;22.47;49.15;99860.69;3183749;27;19937;-69
2023/07/09 01:50:49;;;;;;;;;;;;;;;22.46;49.29;99868.81;3183574;27;19926;-69
2023/07/09 01:52:22;;;;;;;;;;;;;;;22.44;49.28;99868.94;3183515;27;19927;-69
2023/07/09 01:53:54;;;;;;;;;;;;;;;22.43;49.02;99872.56;3183727;27;19948;-69
2023/07/09 01:55:24;;;;;;;;;;;;;;;22.42;49.43;99870.91;3178877;27;19926;-69
2023/07/09 01:57:01;;;;;;;;;;;;;;;22.42;49.14;99876.22;3183586;27;19923;-69
2023/07/09 01:58:32;;;;;;;;;;;;;;;22.42;48.98;99875.34;3183596;27;19931;-69
2023/07/09 02:00:05;;;;;;;;;;;;;;;22.40;49.12;99875.50;3183620;27;19919;-69
2023/07/09 02:01:36;;;;;;;;;;;;;;;22.40;49.20;99877.34;3183390;27;19923;-69
2023/07/09 02:03:07;;;;;;;;;;;;;;;22.38;49.39;99879.28;3183530;27;20419;-69
2023/07/09 02:04:38;;;;;;;;;;;;;;;22.37;49.12;99880.28;3183679;27;19923;-69
2023/07/09 02:06:09;;;;;;;;;;;;;;;22.36;49.19;99876.78;3183187;27;19972;-69
2023/07/09 02:07:42;;;;;;;;;;;;;;;22.34;49.19;99876.09;3183079;27;19923;-69
2023/07/09 02:09:13;;;;;;;;;;;;;;;22.34;49.05;99873.44;3183515;27;20003;-69
2023/07/09 02:10:44;;;;;;;;;;;;;;;22.35;49.18;99884.88;3183145;27;20400;-69
2023/07/09 02:12:15;;;;;;;;;;;;;;;22.35;49.01;99876.91;3183215;27;19923;-69
2023/07/09 02:13:47;;;;;;;;;;;;;;;22.35;49.13;99879.56;3183369;27;19926;-69
2023/07/09 02:15:17;;;;;;;;;;;;;;;22.32;48.98;99877.22;3183689;27;19926;-69
2023/07/09 02:16:49;;;;;;;;;;;;;;;22.32;48.95;99871.91;3178566;27;19927;-69
2023/07/09 02:18:20;;;;;;;;;;;;;;;22.31;49.27;99883.50;3183577;27;19996;-69
2023/07/09 02:19:51;;;;;;;;;;;;;;;22.32;49.09;99890.47;3183393;27;19919;-69
2023/07/09 02:21:23;;;;;;;;;;;;;;;22.31;49.19;99886.16;3183705;27;19976;-69
2023/07/09 02:22:56;;;;;;;;;;;;;;;22.29;49.19;99886.28;3183495;27;19931;-69
2023/07/09 02:24:27;;;;;;;;;;;;;;;22.26;49.11;99890.06;3173767;27;19983;-69
2023/07/09 02:25:59;;;;;;;;;;;;;;;22.27;49.23;99890.88;3183215;27;19968;-69
2023/07/09 02:27:30;;;;;;;;;;;;;;;22.25;49.08;99887.56;3183284;27;19919;-69
2023/07/09 02:29:01;;;;;;;;;;;;;;;22.24;49.09;99897.34;3183366;27;20320;-69
2023/07/09 02:30:32;;;;;;;;;;;;;;;22.25;49.01;99893.69;3182952;28;19919;-69
2023/07/09 02:32:03;;;;;;;;;;;;;;;22.23;49.06;99898.31;3183431;28;19919;-69
2023/07/09 02:33:35;;;;;;;;;;;;;;;22.22;49.13;99896.63;3183161;28;19923;-69
2023/07/09 02:35:06;;;;;;;;;;;;;;;22.20;49.01;99903.88;3183370;28;19926;-69
2023/07/09 02:36:42;;;;;;;;;;;;;;;22.20;49.00;99903.06;3178377;28;19927;-70
2023/07/09 02:38:14;;;;;;;;;;;;;;;22.17;48.88;99909.47;3176618;28;19958;-69
2023/07/09 02:39:46;;;;;;;;;;;;;;;22.16;49.02;99896.34;3182991;28;19934;-69
2023/07/09 02:41:17;;;;;;;;;;;;;;;22.14;49.04;99899.13;3183511;28;19919;-69
2023/07/09 02:42:48;;;;;;;;;;;;;;;22.17;49.00;99911.28;3183277;28;20304;-69
2023/07/09 02:44:19;;;;;;;;;;;;;;;22.16;48.81;99906.94;3179714;28;20465;-69
2023/07/09 02:45:51;;;;;;;;;;;;;;;22.14;49.08;99904.41;3183385;28;19923;-69
2023/07/09 02:47:21;;;;;;;;;;;;;;;22.15;49.05;99897.28;3183027;28;19927;-69
2023/07/09 02:48:53;;;;;;;;;;;;;;;22.16;48.88;99913.09;3183511;28;19931;-69
2023/07/09 02:50:24;;;;;;;;;;;;;;;22.14;49.00;99907.06;3183564;28;19923;-69
2023/07/09 02:51:55;;;;;;;;;;;;;;;22.14;48.86;99916.84;3183071;28;19935;-69
2023/07/09 02:53:28;;;;;;;;;;;;;;;22.13;49.12;99912.53;3183005;28;19919;-69
2023/07/09 02:54:58;;;;;;;;;;;;;;;22.13;49.00;99912.53;3183104;28;19927;-69
2023/07/09 02:56:30;;;;;;;;;;;;;;;22.13;48.94;99917.84;3183215;28;19923;-69
2023/07/09 02:58:01;;;;;;;;;;;;;;;22.11;49.09;99922.44;3182942;28;19927;-69
2023/07/09 02:59:33;;;;;;;;;;;;;;;22.10;48.94;99921.59;3183108;28;20284;-69
2023/07/09 03:01:05;;;;;;;;;;;;;;;22.09;49.12;99919.06;3183233;28;20415;-69
2023/07/09 03:02:36;;;;;;;;;;;;;;;22.07;49.20;99923.72;3183137;28;20400;-69
2023/07/09 03:04:08;;;;;;;;;;;;;;;22.04;49.01;99919.50;3182686;28;19919;-69
2023/07/09 03:05:39;;;;;;;;;;;;;;;22.05;49.20;99926.47;3183307;28;19923;-70
2023/07/09 03:07:11;;;;;;;;;;;;;;;22.04;49.29;99925.66;3183368;27;19930;-70
2023/07/09 03:08:43;;;;;;;;;;;;;;;22.03;49.28;99923.13;3185342;27;19919;-69
2023/07/09 03:10:14;;;;;;;;;;;;;;;22.02;49.39;99921.47;3185627;27;19919;-70
2023/07/09 03:11:45;;;;;;;;;;;;;;;22.01;49.17;99928.59;3185315;27;19927;-68
2023/07/09 03:13:17;;;;;;;;;;;;;;;22.01;49.21;99931.25;3185651;27;20422;-70
2023/07/09 03:14:48;;;;;;;;;;;;;;;22.00;49.35;99929.53;3185948;27;19919;-68
2023/07/09 03:16:19;;;;;;;;;;;;;;;22.00;49.06;99934.00;3181873;27;20006;-68
2023/07/09 03:17:51;;;;;;;;;;;;;;;22.00;48.99;99926.06;3184710;27;20014;-68
2023/07/09 03:19:22;;;;;;;;;;;;;;;22.00;49.07;99934.00;3185568;27;20268;-69
2023/07/09 03:20:53;;;;;;;;;;;;;;;21.98;49.29;99926.22;3185328;27;19931;-69
2023/07/09 03:22:24;;;;;;;;;;;;;;;21.98;49.26;99928.03;3185284;27;19923;-69
2023/07/09 03:23:57;;;;;;;;;;;;;;;21.98;49.28;99931.50;3185481;27;20508;-69
2023/07/09 03:25:28;;;;;;;;;;;;;;;21.99;48.96;99935.00;3185507;27;19926;-69
2023/07/09 03:26:59;;;;;;;;;;;;;;;21.98;49.06;99933.34;3185056;27;19919;-69
2023/07/09 03:28:30;;;;;;;;;;;;;;;21.95;49.11;99929.16;3185515;27;19931;-69
2023/07/09 03:30:02;;;;;;;;;;;;;;;21.94;48.94;99935.41;3185251;27;20388;-70
2023/07/09 03:31:34;;;;;;;;;;;;;;;21.93;49.09;99931.09;3185386;27;19919;-69
2023/07/09 03:33:06;;;;;;;;;;;;;;;21.95;49.28;99931.78;3182457;27;19934;-69
2023/07/09 03:34:37;;;;;;;;;;;;;;;21.95;49.13;99934.44;3185255;27;20303;-69
2023/07/09 03:36:08;;;;;;;;;;;;;;;21.96;48.94;99932.63;3185612;27;19919;-69
2023/07/09 03:37:39;;;;;;;;;;;;;;;21.97;49.11;99934.28;3181203;27;19919;-69
2023/07/09 03:39:12;;;;;;;;;;;;;;;21.97;49.12;99937.78;3185307;27;20301;-69
2023/07/09 03:40:42;;;;;;;;;;;;;;;21.96;49.00;99938.75;3185491;27;19919;-69
2023/07/09 03:42:14;;;;;;;;;;;;;;;21.97;48.96;99931.63;3185283;27;19994;-69
2023/07/09 03:43:44;;;;;;;;;;;;;;;21.98;49.19;99934.16;3183440;27;19923;-70
2023/07/09 03:45:16;;;;;;;;;;;;;;;21.99;48.68;99935.84;3182949;27;20381;-69
2023/07/09 03:46:47;;;;;;;;;;;;;;;22.00;48.91;99934.84;3185110;27;19976;-69
2023/07/09 03:48:19;;;;;;;;;;;;;;;22.01;48.88;99939.19;3185014;27;19919;-69
2023/07/09 03:49:50;;;;;;;;;;;;;;;22.02;49.07;99934.72;3185256;27;19931;-69
2023/07/09 03:51:21;;;;;;;;;;;;;;;22.04;48.77;99938.91;3185064;27;20398;-69
2023/07/09 03:52:52;;;;;;;;;;;;;;;22.02;48.96;99938.19;3185492;27;20263;-69
2023/07/09 03:54:25;;;;;;;;;;;;;;;22.02;48.69;99929.41;3185140;27;20057;-69
2023/07/09 03:55:56;;;;;;;;;;;;;;;22.04;48.83;99938.06;3184977;27;19988;-69
2023/07/09 03:57:28;;;;;;;;;;;;;;;22.04;48.84;99938.91;3184566;27;19919;-69
2023/07/09 03:58:59;;;;;;;;;;;;;;;22.06;48.78;99943.22;3185160;27;20323;-69
2023/07/09 04:00:30;;;;;;;;;;;;;;;22.08;48.65;99935.97;3184733;27;20385;-69
2023/07/09 04:02:03;;;;;;;;;;;;;;;22.10;48.85;99939.34;3184788;27;19983;-69
2023/07/09 04:03:33;;;;;;;;;;;;;;;22.10;48.62;99942.81;3184849;27;20390;-69
2023/07/09 04:05:05;;;;;;;;;;;;;;;22.11;48.75;99947.13;3185227;27;19919;-69
2023/07/09 04:06:37;;;;;;;;;;;;;;;22.13;48.40;99944.38;3185006;27;20365;-69
2023/07/09 04:08:08;;;;;;;;;;;;;;;22.15;48.54;99945.03;3184586;27;19930;-69
2023/07/09 04:09:41;;;;;;;;;;;;;;;22.18;48.44;99947.44;3185206;27;20453;-69
2023/07/09 04:11:11;;;;;;;;;;;;;;;22.22;48.26;99946.19;3184594;27;19949;-69
2023/07/09 04:12:43;;;;;;;;;;;;;;;22.24;48.32;99949.53;3184628;27;19972;-69
2023/07/09 04:14:15;;;;;;;;;;;;;;;22.28;48.29;99947.47;3184885;27;19942;-68
2023/07/09 04:15:46;;;;;;;;;;;;;;;22.30;48.16;99945.47;3185050;27;19923;-69
2023/07/09 04:17:17;;;;;;;;;;;;;;;22.31;48.23;99947.19;3180283;27;19919;-69
2023/07/09 04:18:49;;;;;;;;;;;;;;;22.33;48.14;99948.72;3184092;27;19926;-69
2023/07/09 04:20:21;;;;;;;;;;;;;;;22.36;47.99;99951.09;3184372;27;20436;-69
2023/07/09 04:21:51;;;;;;;;;;;;;;;22.39;48.11;99955.25;3184691;27;19919;-69
2023/07/09 04:23:23;;;;;;;;;;;;;;;22.39;48.17;99950.81;3184870;27;20344;-69
2023/07/09 04:24:56;;;;;;;;;;;;;;;22.41;48.05;99954.13;3184795;27;20282;-70
2023/07/09 04:26:27;;;;;;;;;;;;;;;22.42;48.00;99960.25;3182238;27;19919;-69
2023/07/09 04:27:59;;;;;;;;;;;;;;;22.43;47.80;99957.50;3173591;27;19919;-70
2023/07/09 04:29:30;;;;;;;;;;;;;;;22.42;47.84;99958.47;3178012;27;19996;-69
2023/07/09 04:31:02;;;;;;;;;;;;;;;22.43;48.03;99952.19;3184890;27;19919;-70
2023/07/09 04:32:33;;;;;;;;;;;;;;;22.47;47.74;99963.34;3184813;27;19920;-70
2023/07/09 04:34:04;;;;;;;;;;;;;;;22.50;47.73;99968.38;3184600;27;19919;-68
2023/07/09 04:35:35;;;;;;;;;;;;;;;22.52;47.79;99971.72;3184222;27;19923;-69
2023/07/09 04:37:07;;;;;;;;;;;;;;;22.54;47.68;99967.13;3180231;27;20348;-68
2023/07/09 04:38:38;;;;;;;;;;;;;;;22.57;47.74;99971.28;3181485;27;20352;-68
2023/07/09 04:40:12;;;;;;;;;;;;;;;22.58;47.70;99968.50;3184490;27;19926;-69
2023/07/09 04:41:43;;;;;;;;;;;;;;;22.61;47.43;99970.03;3184085;27;19972;-69
2023/07/09 04:43:14;;;;;;;;;;;;;;;22.63;47.48;99968.09;3184732;27;20448;-69
2023/07/09 04:44:45;;;;;;;;;;;;;;;22.66;47.63;99973.09;3183558;27;19927;-69
2023/07/09 04:46:17;;;;;;;;;;;;;;;22.70;47.35;99971.84;3184483;27;19919;-69
2023/07/09 04:47:48;;;;;;;;;;;;;;;22.73;47.45;99974.19;3184424;27;20237;-69
2023/07/09 04:49:19;;;;;;;;;;;;;;;22.77;47.31;99972.09;3184373;27;20392;-69
2023/07/09 04:50:50;;;;;;;;;;;;;;;22.81;47.36;99976.16;3184112;27;19995;-69
2023/07/09 04:52:22;;;;;;;;;;;;;;;22.84;47.34;99973.22;3184114;27;19920;-69
2023/07/09 04:53:53;;;;;;;;;;;;;;;22.88;47.32;99966.63;3184115;27;19931;-69
2023/07/09 04:55:26;;;;;;;;;;;;;;;22.90;47.15;99965.50;3184368;27;19925;-69
2023/07/09 04:56:58;;;;;;;;;;;;;;;22.94;46.89;99972.22;3159246;28;20339;-69
2023/07/09 04:58:30;;;;;;;;;;;;;;;22.96;46.97;99966.75;3183379;27;20285;-69
2023/07/09 05:00:00;;;;;;;;;;;;;;;22.98;47.00;99972.75;3184455;27;19945;-69
2023/07/09 05:01:32;;;;;;;;;;;;;;;23.01;46.72;99971.63;3184246;27;19931;-68
2023/07/09 05:03:03;;;;;;;;;;;;;;;23.04;46.55;99968.69;3184160;27;20516;-69
2023/07/09 05:04:34;;;;;;;;;;;;;;;23.07;46.54;99981.66;3184072;27;19931;-69
2023/07/09 05:06:07;;;;;;;;;;;;;;;23.11;46.49;99977.75;3184145;27;20387;-69
2023/07/09 05:07:37;;;;;;;;;;;;;;;23.15;46.69;99973.81;3183994;27;19919;-68
2023/07/09 05:09:09;;;;;;;;;;;;;;;23.18;46.47;99976.19;3184128;27;19919;-68
2023/07/09 05:10:45;;;;;;;;;;;;;;;23.21;46.45;99972.41;3184127;27;19963;-68
2023/07/09 05:12:16;;;;;;;;;;;;;;;23.22;46.23;99974.06;3184232;27;19919;-68
2023/07/09 05:13:47;;;;;;;;;;;;;;;23.21;45.86;99970.56;3184254;27;19980;-68
2023/07/09 05:15:18;;;;;;;;;;;;;;;23.24;46.17;99977.41;3184224;27;20361;-68
2023/07/09 05:16:50;;;;;;;;;;;;;;;23.27;45.84;99972.63;3178892;27;19920;-69
2023/07/09 05:18:20;;;;;;;;;;;;;;;23.31;46.14;99974.03;3184370;27;20308;-69
2023/07/09 05:19:52;;;;;;;;;;;;;;;23.37;45.69;99972.63;3184138;27;19925;-68
2023/07/09 05:21:22;;;;;;;;;;;;;;;23.39;45.90;99971.47;3184143;27;20024;-69
2023/07/09 05:22:54;;;;;;;;;;;;;;;23.44;45.90;99973.69;3183984;27;19940;-69
2023/07/09 05:24:24;;;;;;;;;;;;;;;23.46;45.53;99984.19;3183929;27;19925;-69
2023/07/09 05:25:58;;;;;;;;;;;;;;;23.47;45.48;99986.69;3174641;27;20455;-68
2023/07/09 05:27:30;;;;;;;;;;;;;;;23.51;45.46;99985.38;3181745;27;19927;-69
2023/07/09 05:29:01;;;;;;;;;;;;;;;23.55;45.73;99970.00;3184449;27;19923;-68
2023/07/09 05:30:33;;;;;;;;;;;;;;;23.58;45.57;99975.03;3183494;27;20396;-68
2023/07/09 05:32:04;;;;;;;;;;;;;;;23.61;45.45;99974.72;3183916;27;20407;-68
2023/07/09 05:33:36;;;;;;;;;;;;;;;23.61;45.37;99972.91;3183693;27;20061;-68
2023/07/09 05:35:08;;;;;;;;;;;;;;;23.64;45.01;99970.94;3184344;27;19919;-69
2023/07/09 05:36:39;;;;;;;;;;;;;;;23.67;45.00;99976.78;3183140;27;19919;-70
2023/07/09 05:38:10;;;;;;;;;;;;;;;23.73;45.10;99978.88;3176713;27;19923;-68
2023/07/09 05:39:43;;;;;;;;;;;;;;;23.77;45.23;99974.91;3183451;27;19923;-67
2023/07/09 05:41:16;;;;;;;;;;;;;;;23.80;45.10;99974.63;3183767;27;19968;-68
2023/07/09 05:42:48;;;;;;;;;;;;;;;23.88;45.05;99973.03;3183963;27;19976;-69
2023/07/09 05:44:19;;;;;;;;;;;;;;;23.92;44.75;99977.06;3179709;27;19920;-69
2023/07/09 05:45:50;;;;;;;;;;;;;;;23.97;44.66;99966.81;3183953;27;19923;-69
2023/07/09 05:47:21;;;;;;;;;;;;;;;24.04;44.93;99975.84;3183966;27;20285;-69
2023/07/09 05:48:52;;;;;;;;;;;;;;;24.10;44.65;99961.09;3183913;27;19926;-69
2023/07/09 05:50:24;;;;;;;;;;;;;;;24.15;44.60;99969.47;3183804;27;20388;-70
2023/07/09 05:51:56;;;;;;;;;;;;;;;24.19;44.48;99962.84;3184079;27;20353;-69
2023/07/09 05:53:26;;;;;;;;;;;;;;;24.23;44.05;99964.22;3183523;27;19946;-69
2023/07/09 05:54:59;;;;;;;;;;;;;;;24.29;44.19;99968.94;3183874;27;19919;-69
2023/07/09 05:56:32;;;;;;;;;;;;;;;24.34;44.15;99966.63;3183814;27;20027;-69
2023/07/09 05:58:03;;;;;;;;;;;;;;;24.37;43.80;99974.31;3183635;27;20349;-69
2023/07/09 05:59:34;;;;;;;;;;;;;;;24.38;43.62;99970.69;3183635;27;19963;-69
2023/07/09 06:01:05;;;;;;;;;;;;;;;24.43;43.60;99964.91;3183976;27;19923;-69
2023/07/09 06:02:37;;;;;;;;;;;;;;;24.47;43.53;99961.78;3177407;27;19924;-69
2023/07/09 06:04:08;;;;;;;;;;;;;;;24.53;43.61;99965.66;3176648;27;19944;-69
2023/07/09 06:05:39;;;;;;;;;;;;;;;24.57;43.39;99956.38;3183416;27;19926;-70
2023/07/09 06:07:10;;;;;;;;;;;;;;;24.63;43.70;99947.75;3183667;27;19923;-69
2023/07/09 06:08:42;;;;;;;;;;;;;;;24.71;43.30;99950.47;3183480;27;19920;-69
2023/07/09 06:10:15;;;;;;;;;;;;;;;24.76;43.34;99955.34;3183753;27;19920;-69
2023/07/09 06:11:46;;;;;;;;;;;;;;;24.82;43.14;99948.56;3183438;27;19983;-70
2023/07/09 06:13:18;;;;;;;;;;;;;;;24.91;43.51;99948.44;3183635;27;19942;-69
2023/07/09 06:14:50;;;;;;;;;;;;;;;25.00;42.90;99949.31;3183988;27;19920;-68
2023/07/09 06:16:21;;;;;;;;;;;;;;;25.03;42.69;99942.84;3179672;27;19924;-68
2023/07/09 06:17:52;;;;;;;;;;;;;;;25.06;42.54;99946.00;3182287;27;20297;-67
2023/07/09 06:19:23;;;;;;;;;;;;;;;25.10;42.38;99947.34;3183650;27;19930;-69
2023/07/09 06:20:54;;;;;;;;;;;;;;;25.12;42.27;99945.38;3183796;27;20315;-69
2023/07/09 06:22:26;;;;;;;;;;;;;;;25.13;42.19;99944.41;3180691;27;19930;-69
2023/07/09 06:23:57;;;;;;;;;;;;;;;25.12;42.06;99944.53;3183650;27;19927;-69
2023/07/09 06:25:28;;;;;;;;;;;;;;;25.13;42.11;99943.53;3183513;27;20392;-69
2023/07/09 06:27:01;;;;;;;;;;;;;;;25.13;42.09;99947.06;3183441;27;19926;-68
2023/07/09 06:28:33;;;;;;;;;;;;;;;25.14;41.87;99940.75;3183207;27;19919;-68
2023/07/09 06:30:03;;;;;;;;;;;;;;;25.16;41.87;99944.06;3183592;27;19926;-67
2023/07/09 06:31:37;;;;;;;;;;;;;;;25.19;41.97;99942.94;3183591;28;19946;-67
2023/07/09 06:33:07;;;;;;;;;;;;;;;25.25;42.12;99950.28;3183128;28;19919;-68
2023/07/09 06:34:39;;;;;;;;;;;;;;;25.31;41.88;99946.13;3173708;28;19936;-68
2023/07/09 06:36:09;;;;;;;;;;;;;;;25.36;41.96;99941.16;3183111;28;20316;-68
2023/07/09 06:37:41;;;;;;;;;;;;;;;25.38;41.38;99947.19;3175036;28;19923;-68
2023/07/09 06:39:12;;;;;;;;;;;;;;;25.39;41.66;99938.19;3183414;28;19942;-68
2023/07/09 06:40:43;;;;;;;;;;;;;;;25.43;41.32;99942.19;3183519;28;19942;-67
2023/07/09 06:42:16;;;;;;;;;;;;;;;25.46;41.25;99941.84;3183256;27;19919;-69
2023/07/09 06:43:47;;;;;;;;;;;;;;;25.48;41.37;99945.22;3184315;27;19923;-69
2023/07/09 06:45:18;;;;;;;;;;;;;;;25.47;41.00;99937.34;3184127;27;20010;-68
2023/07/09 06:46:50;;;;;;;;;;;;;;;25.51;40.96;99938.72;3185939;27;19979;-68
2023/07/09 06:48:22;;;;;;;;;;;;;;;25.54;40.82;99941.88;3186054;27;19923;-69
2023/07/09 06:49:52;;;;;;;;;;;;;;;25.60;40.92;99946.56;3185975;27;19975;-68
2023/07/09 06:51:24;;;;;;;;;;;;;;;25.66;40.77;99947.75;3185806;27;19923;-68
2023/07/09 06:52:54;;;;;;;;;;;;;;;25.73;41.13;99945.25;3185759;27;20506;-68
2023/07/09 06:54:26;;;;;;;;;;;;;;;25.79;41.01;99941.94;3185870;27;19990;-69
2023/07/09 06:55:58;;;;;;;;;;;;;;;25.87;40.86;99939.31;3185623;27;20323;-68
2023/07/09 06:57:30;;;;;;;;;;;;;;;25.97;40.69;99939.16;3185453;27;19923;-68
2023/07/09 06:59:02;;;;;;;;;;;;;;;26.05;40.41;99941.84;3185810;27;20003;-69
2023/07/09 07:00:33;;;;;;;;;;;;;;;26.10;40.59;99935.00;3185818;27;19920;-68
2023/07/09 07:02:05;;;;;;;;;;;;;;;26.15;40.12;99931.00;3185834;27;19926;-69
2023/07/09 07:03:35;;;;;;;;;;;;;;;26.18;40.37;99936.84;3185493;27;19945;-68
2023/07/09 07:05:07;;;;;;;;;;;;;;;26.22;40.07;99938.19;3185645;27;19924;-68
2023/07/09 07:06:38;;;;;;;;;;;;;;;26.24;40.12;99935.34;3185664;27;19919;-68
2023/07/09 07:08:10;;;;;;;;;;;;;;;26.29;40.26;99933.00;3185437;27;19926;-69
2023/07/09 07:09:41;;;;;;;;;;;;;;;26.33;40.10;99940.50;3185069;27;19927;-70
2023/07/09 07:11:12;;;;;;;;;;;;;;;26.40;39.93;99937.16;3185521;27;19919;-68
2023/07/09 07:12:45;;;;;;;;;;;;;;;26.40;40.00;99940.66;3185479;27;19923;-69
2023/07/09 07:14:17;;;;;;;;;;;;;;;26.44;39.72;99936.66;3185793;27;19970;-69
2023/07/09 07:15:48;;;;;;;;;;;;;;;26.50;39.93;99937.84;3185566;27;19927;-69
2023/07/09 07:17:20;;;;;;;;;;;;;;;26.57;39.89;99940.69;3180936;27;19926;-69
2023/07/09 07:18:51;;;;;;;;;;;;;;;26.62;39.73;99938.31;3179117;27;20366;-69
2023/07/09 07:20:22;;;;;;;;;;;;;;;26.67;39.63;99936.81;3185512;27;19930;-69
2023/07/09 07:21:53;;;;;;;;;;;;;;;26.73;39.43;99936.13;3185742;27;20671;-69
2023/07/09 07:23:24;;;;;;;;;;;;;;;26.81;39.33;99939.81;3185847;27;19919;-69
2023/07/09 07:24:55;;;;;;;;;;;;;;;26.87;39.00;99936.44;3185332;27;20392;-69
2023/07/09 07:26:26;;;;;;;;;;;;;;;26.92;38.92;99934.09;3185523;27;19942;-69
2023/07/09 07:27:59;;;;;;;;;;;;;;;26.93;39.10;99930.41;3185239;27;19919;-69
2023/07/09 07:29:30;;;;;;;;;;;;;;;27.02;38.90;99931.22;3185551;27;20658;-69
2023/07/09 07:31:02;;;;;;;;;;;;;;;27.08;39.02;99923.34;3185389;27;20013;-69
2023/07/09 07:32:32;;;;;;;;;;;;;;;27.16;39.02;99928.69;3162576;27;19927;-69
2023/07/09 07:34:04;;;;;;;;;;;;;;;27.24;38.69;99925.13;3185102;27;20410;-69
2023/07/09 07:35:34;;;;;;;;;;;;;;;27.31;38.52;99927.97;3185201;27;19923;-69
2023/07/09 07:37:06;;;;;;;;;;;;;;;27.39;38.58;99919.88;3180965;27;20492;-69
2023/07/09 07:38:36;;;;;;;;;;;;;;;27.47;38.29;99925.19;3181892;27;19946;-70
2023/07/09 07:40:09;;;;;;;;;;;;;;;27.51;38.28;99912.28;3185566;27;19948;-70
2023/07/09 07:41:39;;;;;;;;;;;;;;;27.58;38.17;99915.94;3185484;27;19919;-70
2023/07/09 07:43:12;;;;;;;;;;;;;;;27.63;38.01;99910.91;3185350;27;20396;-70
2023/07/09 07:44:43;;;;;;;;;;;;;;;27.71;37.76;99916.19;3181507;27;20312;-70
2023/07/09 07:46:14;;;;;;;;;;;;;;;27.78;37.83;99914.50;3185276;27;19920;-69
2023/07/09 07:47:45;;;;;;;;;;;;;;;27.85;37.39;99909.28;3185299;27;19923;-69
2023/07/09 07:49:16;;;;;;;;;;;;;;;27.90;37.41;99905.06;3185083;27;20365;-70
2023/07/09 07:50:47;;;;;;;;;;;;;;;27.96;37.22;99911.53;3185239;27;19920;-69
2023/07/09 07:52:19;;;;;;;;;;;;;;;27.94;36.80;99897.50;3185351;27;20422;-70
2023/07/09 07:53:50;;;;;;;;;;;;;;;28.00;37.03;99901.31;3184905;27;19943;-70
2023/07/09 07:55:21;;;;;;;;;;;;;;;28.02;36.64;99904.63;3185347;27;20570;-70
2023/07/09 07:56:52;;;;;;;;;;;;;;;28.08;36.58;99903.91;3185279;27;19927;-70
2023/07/09 07:58:25;;;;;;;;;;;;;;;28.16;36.52;99906.53;3184904;27;20300;-70